createdAt,value
2018-03-30T00:00:35.312Z,0.65
2018-03-30T00:03:01.094Z,0.27
2018-03-30T00:05:26.899Z,0.44
2018-03-30T00:07:52.688Z,0.43
2018-03-30T00:10:18.482Z,0.37
2018-03-30T00:12:44.267Z,0.19
2018-03-30T00:15:10.060Z,0.14
2018-03-30T00:17:35.863Z,-0.01
2018-03-30T00:20:01.687Z,0.00
2018-03-30T00:22:27.483Z,-0.08
2018-03-30T00:24:53.251Z,-0.08
2018-03-30T00:27:19.074Z,-0.09
2018-03-30T00:29:51.928Z,0.00
2018-03-30T00:32:17.764Z,0.12
2018-03-30T00:34:43.582Z,0.20
2018-03-30T00:37:09.364Z,0.17
2018-03-30T00:39:35.154Z,0.04
2018-03-30T00:42:00.967Z,0.05
2018-03-30T00:44:26.764Z,0.01
2018-03-30T00:46:52.555Z,-0.03
2018-03-30T00:49:18.367Z,0.01
2018-03-30T00:51:44.958Z,-0.03
2018-03-30T00:54:10.743Z,-0.03
2018-03-30T00:56:36.552Z,-0.10
2018-03-30T00:59:02.379Z,-0.08
2018-03-30T01:01:28.184Z,-0.02
2018-03-30T01:03:53.992Z,0.11
2018-03-30T01:06:19.792Z,-0.04
2018-03-30T01:08:45.578Z,0.02
2018-03-30T01:11:11.397Z,0.05
2018-03-30T01:13:37.195Z,-0.11
2018-03-30T01:16:03.127Z,-0.12
2018-03-30T01:18:29.961Z,-0.07
2018-03-30T01:20:55.766Z,0.10
2018-03-30T01:23:21.562Z,0.27
2018-03-30T01:25:47.385Z,0.39
2018-03-30T01:28:13.183Z,0.34
2018-03-30T01:30:38.976Z,0.23
2018-03-30T01:33:04.773Z,0.27
2018-03-30T01:35:30.579Z,0.40
2018-03-30T01:37:56.380Z,0.29
2018-03-30T01:40:22.158Z,0.47
2018-03-30T01:42:48.142Z,0.51
2018-03-30T01:45:13.936Z,0.40
2018-03-30T01:47:39.712Z,0.45
2018-03-30T01:50:05.499Z,0.26
2018-03-30T01:52:31.308Z,0.11
2018-03-30T01:54:57.129Z,0.24
2018-03-30T01:57:22.919Z,0.31
2018-03-30T01:59:48.735Z,0.23
2018-03-30T02:02:21.595Z,0.09
2018-03-30T02:04:47.389Z,0.00
2018-03-30T02:07:13.193Z,0.18
2018-03-30T02:09:39.023Z,0.58
2018-03-30T02:12:04.808Z,0.13
2018-03-30T02:14:30.605Z,0.12
2018-03-30T02:16:56.403Z,0.17
2018-03-30T02:19:22.214Z,0.03
2018-03-30T02:21:48.069Z,0.09
2018-03-30T02:24:13.895Z,0.22
2018-03-30T02:26:39.686Z,0.25
2018-03-30T02:29:05.492Z,0.23
2018-03-30T02:31:31.288Z,0.27
2018-03-30T02:33:57.113Z,0.29
2018-03-30T02:36:22.899Z,0.26
2018-03-30T02:38:48.692Z,0.10
2018-03-30T02:41:14.755Z,-0.09
2018-03-30T02:43:40.540Z,-0.37
2018-03-30T02:46:06.340Z,-0.31
2018-03-30T02:48:32.159Z,0.08
2018-03-30T02:50:57.955Z,-0.46
2018-03-30T02:53:23.744Z,0.03
2018-03-30T02:55:49.534Z,0.18
2018-03-30T02:58:15.340Z,-0.22
2018-03-30T03:00:41.147Z,-0.19
2018-03-30T03:03:06.953Z,0.09
2018-03-30T03:05:33.031Z,-0.02
2018-03-30T03:07:58.824Z,-0.13
2018-03-30T03:10:24.615Z,0.24
2018-03-30T03:12:50.448Z,0.27
2018-03-30T03:15:16.230Z,-0.08
2018-03-30T03:17:42.037Z,-0.09
2018-03-30T03:20:07.914Z,-0.36
2018-03-30T03:22:33.722Z,-0.20
2018-03-30T03:24:59.535Z,-0.45
2018-03-30T03:27:25.343Z,-0.65
2018-03-30T03:29:51.130Z,-0.47
2018-03-30T03:32:16.919Z,-0.29
2018-03-30T03:34:42.712Z,-0.21
2018-03-30T03:37:08.496Z,-0.06
2018-03-30T03:39:34.299Z,-0.14
2018-03-30T03:42:00.112Z,0.18
2018-03-30T03:44:25.905Z,-0.14
2018-03-30T03:46:51.703Z,-0.64
2018-03-30T03:49:17.497Z,-0.37
2018-03-30T03:51:43.312Z,-0.19
2018-03-30T03:54:09.112Z,-0.32
2018-03-30T03:56:34.902Z,-0.59
2018-03-30T03:59:00.719Z,-0.52
2018-03-30T04:01:26.551Z,-0.23
2018-03-30T04:03:52.335Z,-0.31
2018-03-30T04:06:18.476Z,-0.34
2018-03-30T04:08:44.296Z,-0.36
2018-03-30T04:11:10.087Z,-0.23
2018-03-30T04:13:36.151Z,-0.53
2018-03-30T04:16:01.940Z,-0.52
2018-03-30T04:18:27.726Z,-0.46
2018-03-30T04:20:53.559Z,-0.45
2018-03-30T04:23:19.356Z,-0.45
2018-03-30T04:25:45.144Z,-0.47
2018-03-30T04:28:10.926Z,-0.51
2018-03-30T04:30:36.707Z,-0.26
2018-03-30T04:33:02.553Z,-0.45
2018-03-30T04:35:28.363Z,-0.63
2018-03-30T04:37:54.123Z,-0.38
2018-03-30T04:40:19.950Z,-0.33
2018-03-30T04:42:45.737Z,-0.13
2018-03-30T04:45:11.524Z,-0.34
2018-03-30T04:47:37.332Z,-0.33
2018-03-30T04:50:03.180Z,-0.14
2018-03-30T04:52:28.955Z,-0.33
2018-03-30T04:54:54.744Z,-0.47
2018-03-30T04:57:20.550Z,-0.53
2018-03-30T04:59:46.338Z,-0.37
2018-03-30T05:02:12.119Z,-0.44
2018-03-30T05:04:37.919Z,-0.64
2018-03-30T05:07:03.747Z,-0.89
2018-03-30T05:09:29.534Z,-0.56
2018-03-30T05:11:55.328Z,-0.73
2018-03-30T05:14:21.112Z,-0.46
2018-03-30T05:16:46.920Z,-0.75
2018-03-30T05:19:12.712Z,-0.75
2018-03-30T05:21:38.487Z,-0.73
2018-03-30T05:24:04.282Z,-0.52
2018-03-30T05:26:30.394Z,-0.48
2018-03-30T05:28:56.189Z,-0.22
2018-03-30T05:31:21.967Z,-0.59
2018-03-30T05:33:47.768Z,-0.78
2018-03-30T05:36:13.565Z,-0.41
2018-03-30T05:38:39.348Z,-0.37
2018-03-30T05:41:05.399Z,-0.27
2018-03-30T05:43:31.187Z,-0.60
2018-03-30T05:45:56.978Z,-0.42
2018-03-30T05:48:22.800Z,-0.34
2018-03-30T05:50:48.611Z,-0.52
2018-03-30T05:53:14.439Z,-0.27
2018-03-30T05:55:40.213Z,-0.18
2018-03-30T05:58:05.996Z,0.06
2018-03-30T06:00:31.800Z,-0.06
2018-03-30T06:02:57.592Z,0.28
2018-03-30T06:05:23.393Z,0.26
2018-03-30T06:07:49.319Z,0.29
2018-03-30T06:10:15.116Z,0.39
2018-03-30T06:12:40.931Z,0.47
2018-03-30T06:15:06.723Z,0.61
2018-03-30T06:17:32.506Z,0.61
2018-03-30T06:19:58.316Z,0.54
2018-03-30T06:22:24.102Z,0.43
2018-03-30T06:24:50.179Z,0.39
2018-03-30T06:27:15.979Z,0.57
2018-03-30T06:29:41.754Z,0.61
2018-03-30T06:32:07.588Z,0.46
2018-03-30T06:34:33.370Z,0.61
2018-03-30T06:36:59.189Z,0.64
2018-03-30T06:39:25.016Z,0.83
2018-03-30T06:41:50.842Z,1.31
2018-03-30T06:44:16.630Z,1.40
2018-03-30T06:46:42.475Z,1.22
2018-03-30T06:49:08.395Z,1.15
2018-03-30T06:51:34.225Z,1.63
2018-03-30T06:54:00.048Z,1.73
2018-03-30T06:56:26.218Z,1.59
2018-03-30T06:58:52.041Z,1.35
2018-03-30T07:01:17.911Z,1.51
2018-03-30T07:03:43.728Z,1.58
2018-03-30T07:06:09.524Z,1.92
2018-03-30T07:08:35.326Z,1.95
2018-03-30T07:11:01.169Z,1.69
2018-03-30T07:13:26.951Z,1.52
2018-03-30T07:15:52.757Z,1.96
2018-03-30T07:18:18.571Z,2.06
2018-03-30T07:20:44.357Z,2.19
2018-03-30T07:23:10.146Z,1.94
2018-03-30T07:25:35.979Z,2.08
2018-03-30T07:28:01.769Z,2.11
2018-03-30T07:30:27.572Z,2.13
2018-03-30T07:32:53.417Z,2.00
2018-03-30T07:35:19.229Z,2.47
2018-03-30T07:37:45.083Z,2.19
2018-03-30T07:40:13.168Z,2.44
2018-03-30T07:42:38.991Z,2.20
2018-03-30T07:45:04.840Z,2.13
2018-03-30T07:47:30.654Z,2.23
2018-03-30T07:49:56.520Z,2.15
2018-03-30T07:52:22.328Z,2.20
2018-03-30T07:54:48.176Z,2.12
2018-03-30T07:57:14.022Z,1.95
2018-03-30T07:59:39.961Z,1.90
2018-03-30T08:02:06.241Z,2.00
2018-03-30T08:04:32.089Z,2.02
2018-03-30T08:06:59.136Z,2.02
2018-03-30T08:09:25.585Z,2.14
2018-03-30T08:11:51.403Z,2.25
2018-03-30T08:14:17.365Z,2.19
2018-03-30T08:16:50.556Z,2.29
2018-03-30T08:19:16.650Z,2.16
2018-03-30T08:21:42.760Z,2.36
2018-03-30T08:24:08.634Z,2.11
2018-03-30T08:26:34.628Z,2.18
2018-03-30T08:29:00.514Z,2.31
2018-03-30T08:31:26.736Z,2.55
2018-03-30T08:33:52.522Z,2.62
2018-03-30T08:36:18.464Z,2.70
2018-03-30T08:38:44.683Z,2.68
2018-03-30T08:41:10.469Z,2.89
2018-03-30T08:43:36.560Z,2.93
2018-03-30T08:46:02.417Z,2.87
2018-03-30T08:48:28.210Z,2.95
2018-03-30T08:50:54.011Z,2.70
2018-03-30T08:53:19.832Z,2.91
2018-03-30T08:55:45.629Z,3.05
2018-03-30T08:58:11.423Z,3.15
2018-03-30T09:00:37.232Z,3.06
2018-03-30T09:03:03.035Z,3.15
2018-03-30T09:05:28.836Z,2.96
2018-03-30T09:07:54.643Z,3.11
2018-03-30T09:10:20.450Z,3.24
2018-03-30T09:12:46.223Z,3.18
2018-03-30T09:15:12.030Z,3.31
2018-03-30T09:17:37.977Z,3.37
2018-03-30T09:20:03.804Z,3.43
2018-03-30T09:22:29.724Z,3.80
2018-03-30T09:24:55.510Z,3.57
2018-03-30T09:27:21.316Z,3.77
2018-03-30T09:29:53.277Z,3.77
2018-03-30T09:32:19.071Z,4.08
2018-03-30T09:34:44.868Z,4.25
2018-03-30T09:37:10.703Z,4.08
2018-03-30T09:39:36.499Z,4.11
2018-03-30T09:42:02.326Z,4.24
2018-03-30T09:44:28.134Z,4.20
2018-03-30T09:46:53.933Z,4.15
2018-03-30T09:49:19.748Z,3.84
2018-03-30T09:51:45.560Z,4.12
2018-03-30T09:54:11.689Z,4.47
2018-03-30T09:56:37.522Z,4.50
2018-03-30T09:59:03.405Z,4.62
2018-03-30T10:01:29.227Z,4.84
2018-03-30T10:03:55.056Z,4.68
2018-03-30T10:06:20.897Z,4.57
2018-03-30T10:08:46.695Z,4.71
2018-03-30T10:11:12.533Z,4.60
2018-03-30T10:13:38.355Z,4.75
2018-03-30T10:16:04.174Z,5.05
2018-03-30T10:18:31.532Z,5.15
2018-03-30T10:20:57.394Z,4.99
2018-03-30T10:23:23.190Z,5.02
2018-03-30T10:25:49.744Z,5.05
2018-03-30T10:28:15.570Z,4.98
2018-03-30T10:30:41.390Z,5.11
2018-03-30T10:33:08.187Z,5.27
2018-03-30T10:35:34.250Z,5.23
2018-03-30T10:38:00.174Z,5.23
2018-03-30T10:40:26.787Z,5.18
2018-03-30T10:42:52.635Z,5.12
2018-03-30T10:45:18.436Z,5.38
2018-03-30T10:47:44.271Z,5.43
2018-03-30T10:50:10.103Z,5.49
2018-03-30T10:52:36.083Z,5.59
2018-03-30T10:55:01.909Z,5.96
2018-03-30T10:57:27.866Z,6.05
2018-03-30T10:59:53.658Z,6.18
2018-03-30T11:02:20.115Z,6.06
2018-03-30T11:04:45.948Z,6.04
2018-03-30T11:07:11.780Z,6.04
2018-03-30T11:09:37.558Z,6.17
2018-03-30T11:12:03.621Z,6.36
2018-03-30T11:14:29.426Z,6.15
2018-03-30T11:16:55.207Z,6.31
2018-03-30T11:19:21.004Z,6.15
2018-03-30T11:21:46.817Z,6.51
2018-03-30T11:24:12.636Z,6.30
2018-03-30T11:26:38.415Z,6.40
2018-03-30T11:29:04.215Z,6.38
2018-03-30T11:31:30.009Z,6.42
2018-03-30T11:33:55.799Z,6.45
2018-03-30T11:36:21.620Z,6.52
2018-03-30T11:38:47.409Z,6.46
2018-03-30T11:41:13.195Z,6.43
2018-03-30T11:43:39.267Z,6.43
2018-03-30T11:46:05.059Z,6.61
2018-03-30T11:48:30.845Z,6.46
2018-03-30T11:50:56.707Z,6.62
2018-03-30T11:53:22.502Z,6.64
2018-03-30T11:55:48.275Z,6.83
2018-03-30T11:58:14.059Z,6.67
2018-03-30T12:00:40.193Z,6.80
2018-03-30T12:03:05.975Z,7.02
2018-03-30T12:05:31.773Z,7.09
2018-03-30T12:07:57.653Z,7.37
2018-03-30T12:10:23.414Z,7.40
2018-03-30T12:12:49.195Z,7.54
2018-03-30T12:15:15.007Z,8.05
2018-03-30T12:17:40.783Z,8.13
2018-03-30T12:20:06.603Z,8.53
2018-03-30T12:22:32.414Z,8.66
2018-03-30T12:24:58.208Z,8.72
2018-03-30T12:27:24.000Z,8.33
2018-03-30T12:29:49.798Z,8.45
2018-03-30T12:32:15.603Z,8.63
2018-03-30T12:34:41.383Z,8.08
2018-03-30T12:37:07.210Z,8.31
2018-03-30T12:39:33.006Z,7.97
2018-03-30T12:41:58.796Z,8.25
2018-03-30T12:44:24.595Z,8.78
2018-03-30T12:46:50.370Z,8.82
2018-03-30T12:49:16.163Z,9.46
2018-03-30T12:51:41.976Z,10.26
2018-03-30T12:54:07.763Z,10.45
2018-03-30T12:56:33.559Z,12.55
2018-03-30T12:58:59.406Z,12.91
2018-03-30T13:01:25.178Z,12.92
2018-03-30T13:03:50.967Z,13.30
2018-03-30T13:06:16.799Z,13.22
2018-03-30T13:08:42.629Z,13.46
2018-03-30T13:11:08.428Z,14.51
2018-03-30T13:13:34.231Z,12.94
2018-03-30T13:16:00.039Z,12.94
2018-03-30T13:18:25.882Z,12.35
2018-03-30T13:20:51.683Z,12.29
2018-03-30T13:23:17.471Z,11.70
2018-03-30T13:25:43.292Z,12.27
2018-03-30T13:28:09.077Z,12.44
2018-03-30T13:30:34.887Z,12.29
2018-03-30T13:33:00.714Z,12.15
2018-03-30T13:35:26.517Z,12.03
2018-03-30T13:37:52.308Z,12.74
2018-03-30T13:40:18.135Z,13.02
2018-03-30T13:42:43.932Z,12.40
2018-03-30T13:45:10.725Z,12.43
2018-03-30T13:47:36.535Z,12.35
2018-03-30T13:50:02.492Z,12.25
2018-03-30T13:52:30.142Z,12.48
2018-03-30T13:54:55.974Z,12.66
2018-03-30T13:57:22.712Z,12.35
2018-03-30T13:59:48.578Z,12.51
2018-03-30T14:02:24.654Z,11.84
2018-03-30T14:04:54.625Z,11.58
2018-03-30T14:10:14.951Z,11.71
2018-03-30T14:12:47.553Z,11.53
2018-03-30T14:15:15.316Z,11.13
2018-03-30T14:20:35.911Z,11.18
2018-03-30T14:23:04.615Z,10.93
2018-03-30T14:25:31.399Z,10.39
2018-03-30T14:28:04.112Z,10.26
2018-03-30T14:30:31.673Z,10.16
2018-03-30T14:33:08.453Z,9.80
2018-03-30T14:35:42.288Z,9.69
2018-03-30T14:40:57.836Z,8.94
2018-03-30T14:43:27.516Z,8.93
2018-03-30T14:48:42.139Z,8.75
2018-03-30T14:54:05.713Z,8.65
2018-03-30T14:56:32.426Z,8.50
2018-03-30T14:59:19.228Z,8.71
2018-03-30T15:01:46.832Z,8.60
2018-03-30T15:04:14.522Z,8.57
2018-03-30T15:09:41.272Z,8.76
2018-03-30T15:15:07.775Z,8.53
2018-03-30T15:17:51.047Z,8.58
2018-03-30T15:20:20.674Z,8.49
2018-03-30T15:22:47.296Z,8.39
2018-03-30T15:28:16.731Z,8.48
2018-03-30T15:30:52.617Z,8.60
2018-03-30T15:33:41.628Z,8.65
2018-03-30T15:36:19.502Z,8.47
2018-03-30T15:38:45.907Z,8.27
2018-03-30T15:41:11.758Z,8.33
2018-03-30T15:43:38.462Z,8.33
2018-03-30T15:48:56.010Z,8.20
2018-03-30T15:51:27.423Z,8.21
2018-03-30T15:53:53.088Z,8.19
2018-03-30T15:56:18.965Z,8.22
2018-03-30T15:58:44.714Z,8.17
2018-03-30T16:01:10.528Z,8.09
2018-03-30T16:03:36.599Z,8.24
2018-03-30T16:06:02.409Z,8.19
2018-03-30T16:08:28.233Z,7.94
2018-03-30T16:10:58.484Z,7.97
2018-03-30T16:13:24.292Z,9.59
2018-03-30T16:15:50.091Z,9.95
2018-03-30T16:18:15.919Z,9.17
2018-03-30T16:20:41.559Z,8.27
2018-03-30T16:23:07.195Z,8.06
2018-03-30T16:25:32.954Z,8.03
2018-03-30T16:27:58.609Z,7.99
2018-03-30T16:30:24.263Z,7.77
2018-03-30T16:32:50.204Z,7.77
2018-03-30T16:35:15.846Z,7.70
2018-03-30T16:37:41.500Z,7.69
2018-03-30T16:40:07.161Z,7.60
2018-03-30T16:42:32.815Z,7.58
2018-03-30T16:44:58.466Z,7.58
2018-03-30T16:47:24.140Z,7.50
2018-03-30T16:49:49.802Z,7.40
2018-03-30T16:52:15.457Z,7.39
2018-03-30T16:54:41.116Z,7.32
2018-03-30T16:57:06.768Z,9.05
2018-03-30T16:59:32.436Z,9.64
2018-03-30T17:01:58.180Z,9.13
2018-03-30T17:04:23.843Z,9.56
2018-03-30T17:06:49.526Z,9.02
2018-03-30T17:09:15.216Z,7.80
2018-03-30T17:11:40.878Z,7.25
2018-03-30T17:14:06.534Z,7.23
2018-03-30T17:16:32.193Z,7.21
2018-03-30T17:18:57.867Z,6.98
2018-03-30T17:21:23.524Z,6.83
2018-03-30T17:23:49.190Z,6.81
2018-03-30T17:26:14.976Z,6.75
2018-03-30T17:28:40.614Z,6.66
2018-03-30T17:31:06.339Z,6.56
2018-03-30T17:33:32.004Z,6.53
2018-03-30T17:35:57.649Z,6.42
2018-03-30T17:38:23.402Z,6.40
2018-03-30T17:40:49.048Z,6.38
2018-03-30T17:43:14.707Z,6.25
2018-03-30T17:45:40.356Z,6.15
2018-03-30T17:48:06.011Z,6.15
2018-03-30T17:50:31.656Z,6.07
2018-03-30T17:52:57.304Z,6.07
2018-03-30T17:55:23.055Z,5.89
2018-03-30T17:57:48.719Z,5.93
2018-03-30T18:00:14.395Z,5.84
2018-03-30T18:02:40.076Z,5.85
2018-03-30T18:05:05.728Z,5.79
2018-03-30T18:07:31.392Z,5.74
2018-03-30T18:09:57.067Z,5.66
2018-03-30T18:12:22.731Z,5.69
2018-03-30T18:14:48.379Z,5.58
2018-03-30T18:17:14.061Z,5.55
2018-03-30T18:19:39.768Z,5.51
2018-03-30T18:22:05.375Z,5.54
2018-03-30T18:24:31.393Z,5.60
2018-03-30T18:26:57.053Z,5.44
2018-03-30T18:29:22.718Z,5.38
2018-03-30T18:31:48.392Z,5.31
2018-03-30T18:34:14.048Z,5.32
2018-03-30T18:36:39.686Z,5.30
2018-03-30T18:39:05.367Z,6.75
2018-03-30T18:41:32.106Z,7.86
2018-03-30T18:43:57.829Z,7.97
2018-03-30T18:46:23.555Z,8.55
2018-03-30T18:48:49.248Z,8.72
2018-03-30T18:51:14.957Z,8.37
2018-03-30T18:53:40.649Z,8.15
2018-03-30T18:56:06.300Z,8.08
2018-03-30T18:58:32.361Z,7.75
2018-03-30T19:00:58.587Z,8.07
2018-03-30T19:03:24.263Z,6.80
2018-03-30T19:05:49.956Z,6.34
2018-03-30T19:08:15.682Z,5.94
2018-03-30T19:10:41.336Z,5.78
2018-03-30T19:13:07.140Z,5.70
2018-03-30T19:15:32.926Z,5.77
2018-03-30T19:17:59.333Z,5.90
2018-03-30T19:20:25.083Z,5.65
2018-03-30T19:22:50.810Z,5.56
2018-03-30T19:25:16.541Z,5.49
2018-03-30T19:27:42.215Z,5.27
2018-03-30T19:30:07.876Z,5.22
2018-03-30T19:32:33.890Z,5.22
2018-03-30T19:34:59.555Z,5.30
2018-03-30T19:37:25.212Z,5.17
2018-03-30T19:39:51.244Z,5.14
2018-03-30T19:42:16.914Z,4.89
2018-03-30T19:44:43.574Z,4.68
2018-03-30T19:47:09.278Z,4.57
2018-03-30T19:49:34.962Z,4.52
2018-03-30T19:52:00.625Z,4.56
2018-03-30T19:54:26.426Z,4.57
2018-03-30T19:56:52.084Z,4.53
2018-03-30T19:59:17.733Z,4.43
2018-03-30T20:01:43.720Z,4.35
2018-03-30T20:04:09.412Z,4.35
2018-03-30T20:06:35.408Z,4.40
2018-03-30T20:09:01.116Z,4.29
2018-03-30T20:11:26.829Z,4.29
2018-03-30T20:13:53.571Z,4.28
2018-03-30T20:16:19.245Z,4.23
2018-03-30T20:18:44.954Z,4.23
2018-03-30T20:21:10.608Z,4.23
2018-03-30T20:23:37.231Z,4.19
2018-03-30T20:26:02.903Z,4.26
2018-03-30T20:28:28.662Z,4.21
2018-03-30T20:30:54.319Z,4.20
2018-03-30T20:33:19.968Z,4.21
2018-03-30T20:35:45.661Z,4.18
2018-03-30T20:38:11.359Z,4.17
2018-03-30T20:40:37.018Z,4.13
2018-03-30T20:43:02.716Z,4.19
2018-03-30T20:45:28.401Z,4.10
2018-03-30T20:47:54.676Z,4.08
2018-03-30T20:50:20.538Z,4.07
2018-03-30T20:52:46.228Z,4.02
2018-03-30T20:55:12.071Z,4.08
2018-03-30T20:57:38.052Z,4.17
2018-03-30T21:00:04.741Z,4.10
2018-03-30T21:02:30.407Z,4.12
2018-03-30T21:04:56.079Z,4.17
2018-03-30T21:07:21.734Z,4.19
2018-03-30T21:09:47.398Z,4.16
2018-03-30T21:12:13.102Z,4.19
2018-03-30T21:14:38.755Z,4.13
2018-03-30T21:17:04.443Z,4.11
2018-03-30T21:19:30.160Z,4.07
2018-03-30T21:21:55.833Z,4.06
2018-03-30T21:24:21.499Z,4.03
2018-03-30T21:26:47.216Z,4.02
2018-03-30T21:29:12.900Z,3.98
2018-03-30T21:31:38.562Z,3.94
2018-03-30T21:34:05.147Z,3.93
2018-03-30T21:36:30.800Z,3.92
2018-03-30T21:38:57.177Z,3.95
2018-03-30T21:41:23.192Z,3.96
2018-03-30T21:43:48.907Z,3.95
2018-03-30T21:46:14.565Z,3.87
2018-03-30T21:48:40.227Z,3.84
2018-03-30T21:51:05.888Z,3.87
2018-03-30T21:53:31.581Z,3.83
2018-03-30T21:55:57.389Z,3.81
2018-03-30T21:58:23.048Z,3.76
2018-03-30T22:00:48.894Z,3.75
2018-03-30T22:03:15.238Z,3.72
2018-03-30T22:05:40.911Z,3.75
2018-03-30T22:08:06.583Z,3.72
2018-03-30T22:10:32.268Z,3.73
2018-03-30T22:12:57.924Z,3.72
2018-03-30T22:15:23.598Z,3.71
2018-03-30T22:17:49.288Z,3.69
2018-03-30T22:20:14.943Z,3.68
2018-03-30T22:22:41.682Z,3.67
2018-03-30T22:25:07.383Z,3.58
2018-03-30T22:27:33.076Z,3.54
2018-03-30T22:29:58.776Z,3.58
2018-03-30T22:32:25.223Z,3.54
2018-03-30T22:34:50.886Z,3.47
2018-03-30T22:37:16.557Z,3.50
2018-03-30T22:39:42.207Z,3.47
2018-03-30T22:42:07.870Z,3.38
2018-03-30T22:44:33.564Z,3.40
2018-03-30T22:46:59.275Z,3.28
2018-03-30T22:49:24.938Z,3.30
2018-03-30T22:51:50.669Z,3.25
2018-03-30T22:54:16.339Z,3.19
2018-03-30T22:56:42.037Z,3.15
2018-03-30T22:59:07.744Z,3.17
2018-03-30T23:01:33.392Z,3.15
2018-03-30T23:03:59.060Z,3.10
2018-03-30T23:06:24.733Z,3.10
2018-03-30T23:08:50.493Z,3.04
2018-03-30T23:11:16.171Z,2.93
2018-03-30T23:13:41.827Z,3.01
2018-03-30T23:16:07.533Z,2.98
2018-03-30T23:18:33.170Z,2.93
2018-03-30T23:20:58.930Z,2.90
2018-03-30T23:23:24.588Z,2.97
2018-03-30T23:25:50.276Z,2.95
2018-03-30T23:28:15.926Z,2.88
2018-03-30T23:30:41.592Z,2.90
2018-03-30T23:33:07.276Z,2.87
2018-03-30T23:35:32.987Z,2.81
2018-03-30T23:37:58.645Z,4.09
2018-03-30T23:40:24.311Z,4.46
2018-03-30T23:42:49.965Z,3.47
2018-03-30T23:45:15.611Z,3.12
2018-03-30T23:47:41.275Z,3.00
2018-03-30T23:50:06.929Z,2.93
2018-03-30T23:52:32.588Z,2.81
2018-03-30T23:54:58.258Z,2.80
2018-03-30T23:57:23.920Z,2.81
2018-03-30T23:59:49.599Z,2.70
